sensor_id;sensor_type;location;lat;lon;timestamp;P1;durP1;ratioP1;P2;durP2;ratioP2
14080;SDS011;7116;52.152;5.392;2023-01-16T00:00:16;9.90;;;4.40;;
14080;SDS011;7116;52.152;5.392;2023-01-16T00:02:41;8.65;;;3.03;;
14080;SDS011;7116;52.152;5.392;2023-01-16T00:05:07;6.83;;;4.00;;
14080;SDS011;7116;52.152;5.392;2023-01-16T00:07:32;7.03;;;3.83;;
14080;SDS011;7116;52.152;5.392;2023-01-16T00:09:57;5.80;;;3.23;;
14080;SDS011;7116;52.152;5.392;2023-01-16T00:12:22;8.27;;;5.50;;
14080;SDS011;7116;52.152;5.392;2023-01-16T00:14:47;8.77;;;4.90;;
14080;SDS011;7116;52.152;5.392;2023-01-16T00:17:13;6.63;;;3.53;;
14080;SDS011;7116;52.152;5.392;2023-01-16T00:19:38;4.47;;;3.80;;
14080;SDS011;7116;52.152;5.392;2023-01-16T00:22:03;5.60;;;3.70;;
14080;SDS011;7116;52.152;5.392;2023-01-16T00:24:28;5.87;;;4.17;;
14080;SDS011;7116;52.152;5.392;2023-01-16T00:26:53;6.27;;;4.50;;
14080;SDS011;7116;52.152;5.392;2023-01-16T00:29:19;7.10;;;3.47;;
14080;SDS011;7116;52.152;5.392;2023-01-16T00:31:44;7.10;;;3.90;;
14080;SDS011;7116;52.152;5.392;2023-01-16T00:34:09;4.50;;;3.40;;
14080;SDS011;7116;52.152;5.392;2023-01-16T00:36:34;6.07;;;3.60;;
14080;SDS011;7116;52.152;5.392;2023-01-16T00:38:59;10.40;;;4.17;;
14080;SDS011;7116;52.152;5.392;2023-01-16T00:41:25;9.13;;;4.60;;
14080;SDS011;7116;52.152;5.392;2023-01-16T00:43:50;6.93;;;3.90;;
14080;SDS011;7116;52.152;5.392;2023-01-16T00:46:15;8.53;;;4.80;;
14080;SDS011;7116;52.152;5.392;2023-01-16T00:48:40;6.73;;;4.97;;
14080;SDS011;7116;52.152;5.392;2023-01-16T00:51:05;5.17;;;4.07;;
14080;SDS011;7116;52.152;5.392;2023-01-16T00:53:31;6.67;;;4.10;;
14080;SDS011;7116;52.152;5.392;2023-01-16T00:55:56;7.47;;;4.20;;
14080;SDS011;7116;52.152;5.392;2023-01-16T00:58:21;8.67;;;3.93;;
14080;SDS011;7116;52.152;5.392;2023-01-16T01:00:46;6.27;;;4.30;;
14080;SDS011;7116;52.152;5.392;2023-01-16T01:03:12;7.77;;;4.83;;
14080;SDS011;7116;52.152;5.392;2023-01-16T01:05:37;6.33;;;4.90;;
14080;SDS011;7116;52.152;5.392;2023-01-16T01:08:03;7.75;;;5.47;;
14080;SDS011;7116;52.152;5.392;2023-01-16T01:10:28;9.73;;;6.13;;
14080;SDS011;7116;52.152;5.392;2023-01-16T01:12:54;9.65;;;6.13;;
14080;SDS011;7116;52.152;5.392;2023-01-16T01:15:19;11.68;;;7.07;;
14080;SDS011;7116;52.152;5.392;2023-01-16T01:17:45;8.77;;;7.17;;
14080;SDS011;7116;52.152;5.392;2023-01-16T01:20:10;9.53;;;7.53;;
14080;SDS011;7116;52.152;5.392;2023-01-16T01:22:35;11.57;;;7.32;;
14080;SDS011;7116;52.152;5.392;2023-01-16T01:25:00;12.00;;;6.70;;
14080;SDS011;7116;52.152;5.392;2023-01-16T01:27:26;14.03;;;6.70;;
14080;SDS011;7116;52.152;5.392;2023-01-16T01:29:51;15.73;;;7.47;;
14080;SDS011;7116;52.152;5.392;2023-01-16T01:32:16;9.03;;;6.03;;
14080;SDS011;7116;52.152;5.392;2023-01-16T01:34:41;13.43;;;6.57;;
14080;SDS011;7116;52.152;5.392;2023-01-16T01:37:07;8.53;;;6.67;;
14080;SDS011;7116;52.152;5.392;2023-01-16T01:39:32;11.47;;;6.77;;
14080;SDS011;7116;52.152;5.392;2023-01-16T01:41:57;15.50;;;7.53;;
14080;SDS011;7116;52.152;5.392;2023-01-16T01:44:46;10.65;;;6.35;;
14080;SDS011;7116;52.152;5.392;2023-01-16T01:47:13;11.75;;;6.70;;
14080;SDS011;7116;52.152;5.392;2023-01-16T01:49:39;7.18;;;6.20;;
14080;SDS011;7116;52.152;5.392;2023-01-16T01:52:04;14.30;;;7.95;;
14080;SDS011;7116;52.152;5.392;2023-01-16T01:54:35;11.65;;;7.85;;
14080;SDS011;7116;52.152;5.392;2023-01-16T01:59:27;10.87;;;7.37;;
14080;SDS011;7116;52.152;5.392;2023-01-16T02:01:53;11.65;;;7.93;;
14080;SDS011;7116;52.152;5.392;2023-01-16T02:04:19;9.30;;;6.30;;
14080;SDS011;7116;52.152;5.392;2023-01-16T02:06:48;13.65;;;7.80;;
14080;SDS011;7116;52.152;5.392;2023-01-16T02:09:14;13.75;;;6.90;;
14080;SDS011;7116;52.152;5.392;2023-01-16T02:11:53;15.73;;;7.50;;
14080;SDS011;7116;52.152;5.392;2023-01-16T02:14:19;12.27;;;7.03;;
14080;SDS011;7116;52.152;5.392;2023-01-16T02:16:45;11.15;;;8.40;;
14080;SDS011;7116;52.152;5.392;2023-01-16T02:30:22;11.38;;;6.82;;
14080;SDS011;7116;52.152;5.392;2023-01-16T02:32:55;12.90;;;7.07;;
14080;SDS011;7116;52.152;5.392;2023-01-16T02:35:27;11.30;;;6.85;;
14080;SDS011;7116;52.152;5.392;2023-01-16T02:38:06;9.90;;;6.13;;
14080;SDS011;7116;52.152;5.392;2023-01-16T02:40:47;11.82;;;6.40;;
14080;SDS011;7116;52.152;5.392;2023-01-16T02:45:49;6.83;;;4.60;;
14080;SDS011;7116;52.152;5.392;2023-01-16T02:48:32;8.52;;;5.53;;
14080;SDS011;7116;52.152;5.392;2023-01-16T02:51:04;10.27;;;5.35;;
14080;SDS011;7116;52.152;5.392;2023-01-16T02:53:36;10.85;;;5.03;;
14080;SDS011;7116;52.152;5.392;2023-01-16T02:56:07;12.13;;;5.38;;
14080;SDS011;7116;52.152;5.392;2023-01-16T02:58:35;9.77;;;5.50;;
14080;SDS011;7116;52.152;5.392;2023-01-16T03:01:01;7.30;;;5.10;;
14080;SDS011;7116;52.152;5.392;2023-01-16T03:06:03;9.15;;;5.30;;
14080;SDS011;7116;52.152;5.392;2023-01-16T03:13:35;7.53;;;4.85;;
14080;SDS011;7116;52.152;5.392;2023-01-16T03:18:41;5.13;;;3.40;;
14080;SDS011;7116;52.152;5.392;2023-01-16T03:28:44;9.37;;;3.47;;
14080;SDS011;7116;52.152;5.392;2023-01-16T03:33:42;7.57;;;3.43;;
14080;SDS011;7116;52.152;5.392;2023-01-16T03:36:20;7.00;;;3.45;;
14080;SDS011;7116;52.152;5.392;2023-01-16T03:38:46;12.40;;;4.07;;
14080;SDS011;7116;52.152;5.392;2023-01-16T03:41:13;5.70;;;3.92;;
14080;SDS011;7116;52.152;5.392;2023-01-16T03:43:40;10.13;;;4.60;;
14080;SDS011;7116;52.152;5.392;2023-01-16T03:46:09;5.60;;;3.90;;
14080;SDS011;7116;52.152;5.392;2023-01-16T03:48:38;6.97;;;3.20;;
14080;SDS011;7116;52.152;5.392;2023-01-16T03:51:07;7.78;;;3.92;;
14080;SDS011;7116;52.152;5.392;2023-01-16T03:53:35;5.28;;;3.35;;
14080;SDS011;7116;52.152;5.392;2023-01-16T03:58:32;7.00;;;3.80;;
14080;SDS011;7116;52.152;5.392;2023-01-16T04:01:01;5.10;;;3.22;;
14080;SDS011;7116;52.152;5.392;2023-01-16T04:03:36;5.63;;;3.47;;
14080;SDS011;7116;52.152;5.392;2023-01-16T04:06:13;4.05;;;3.00;;
14080;SDS011;7116;52.152;5.392;2023-01-16T04:08:40;8.07;;;3.58;;
14080;SDS011;7116;52.152;5.392;2023-01-16T04:11:06;7.53;;;3.63;;
14080;SDS011;7116;52.152;5.392;2023-01-16T04:13:33;7.97;;;3.77;;
14080;SDS011;7116;52.152;5.392;2023-01-16T04:15:59;8.48;;;3.53;;
14080;SDS011;7116;52.152;5.392;2023-01-16T04:18:31;5.50;;;3.63;;
14080;SDS011;7116;52.152;5.392;2023-01-16T04:20:56;5.68;;;3.05;;
14080;SDS011;7116;52.152;5.392;2023-01-16T04:23:21;5.70;;;3.67;;
14080;SDS011;7116;52.152;5.392;2023-01-16T04:25:47;6.03;;;2.97;;
14080;SDS011;7116;52.152;5.392;2023-01-16T04:28:12;7.07;;;3.23;;
14080;SDS011;7116;52.152;5.392;2023-01-16T04:30:37;4.87;;;3.73;;
14080;SDS011;7116;52.152;5.392;2023-01-16T04:33:03;5.40;;;3.33;;
14080;SDS011;7116;52.152;5.392;2023-01-16T04:35:29;8.10;;;3.45;;
14080;SDS011;7116;52.152;5.392;2023-01-16T04:37:54;4.77;;;2.97;;
14080;SDS011;7116;52.152;5.392;2023-01-16T04:40:19;5.70;;;2.73;;
14080;SDS011;7116;52.152;5.392;2023-01-16T04:42:44;7.07;;;3.07;;
14080;SDS011;7116;52.152;5.392;2023-01-16T04:45:10;6.83;;;3.53;;
14080;SDS011;7116;52.152;5.392;2023-01-16T04:47:35;6.67;;;2.90;;
14080;SDS011;7116;52.152;5.392;2023-01-16T04:50:00;6.07;;;3.50;;
14080;SDS011;7116;52.152;5.392;2023-01-16T04:52:27;3.97;;;3.17;;
14080;SDS011;7116;52.152;5.392;2023-01-16T04:54:52;4.80;;;2.90;;
14080;SDS011;7116;52.152;5.392;2023-01-16T04:57:17;6.53;;;3.47;;
14080;SDS011;7116;52.152;5.392;2023-01-16T04:59:42;5.57;;;3.30;;
14080;SDS011;7116;52.152;5.392;2023-01-16T05:02:08;6.67;;;2.90;;
14080;SDS011;7116;52.152;5.392;2023-01-16T05:04:33;8.50;;;2.70;;
14080;SDS011;7116;52.152;5.392;2023-01-16T05:06:58;5.90;;;3.17;;
14080;SDS011;7116;52.152;5.392;2023-01-16T05:09:24;7.90;;;3.47;;
14080;SDS011;7116;52.152;5.392;2023-01-16T05:11:49;4.73;;;2.80;;
14080;SDS011;7116;52.152;5.392;2023-01-16T05:14:14;5.47;;;2.80;;
14080;SDS011;7116;52.152;5.392;2023-01-16T05:16:39;6.90;;;2.93;;
14080;SDS011;7116;52.152;5.392;2023-01-16T05:19:08;7.57;;;2.65;;
14080;SDS011;7116;52.152;5.392;2023-01-16T05:21:33;5.32;;;3.70;;
14080;SDS011;7116;52.152;5.392;2023-01-16T05:23:58;4.37;;;3.30;;
14080;SDS011;7116;52.152;5.392;2023-01-16T05:26:24;6.53;;;3.93;;
14080;SDS011;7116;52.152;5.392;2023-01-16T05:28:49;8.63;;;3.47;;
14080;SDS011;7116;52.152;5.392;2023-01-16T05:31:15;7.37;;;4.40;;
14080;SDS011;7116;52.152;5.392;2023-01-16T05:33:40;7.38;;;3.75;;
14080;SDS011;7116;52.152;5.392;2023-01-16T05:36:05;3.83;;;2.97;;
14080;SDS011;7116;52.152;5.392;2023-01-16T05:38:30;6.00;;;2.97;;
14080;SDS011;7116;52.152;5.392;2023-01-16T05:40:56;8.20;;;3.37;;
14080;SDS011;7116;52.152;5.392;2023-01-16T05:43:21;5.20;;;3.67;;
14080;SDS011;7116;52.152;5.392;2023-01-16T05:45:46;5.90;;;3.23;;
14080;SDS011;7116;52.152;5.392;2023-01-16T05:48:11;6.33;;;4.07;;
14080;SDS011;7116;52.152;5.392;2023-01-16T05:50:37;5.37;;;4.07;;
14080;SDS011;7116;52.152;5.392;2023-01-16T05:53:02;10.73;;;3.03;;
14080;SDS011;7116;52.152;5.392;2023-01-16T05:55:27;7.83;;;3.93;;
14080;SDS011;7116;52.152;5.392;2023-01-16T05:57:52;6.13;;;3.70;;
14080;SDS011;7116;52.152;5.392;2023-01-16T06:00:18;5.87;;;3.20;;
14080;SDS011;7116;52.152;5.392;2023-01-16T06:02:43;6.23;;;3.17;;
14080;SDS011;7116;52.152;5.392;2023-01-16T06:05:11;6.78;;;2.88;;
14080;SDS011;7116;52.152;5.392;2023-01-16T06:07:36;7.30;;;3.30;;
14080;SDS011;7116;52.152;5.392;2023-01-16T06:10:01;4.73;;;3.10;;
14080;SDS011;7116;52.152;5.392;2023-01-16T06:12:26;8.00;;;3.67;;
14080;SDS011;7116;52.152;5.392;2023-01-16T06:14:52;8.57;;;3.43;;
14080;SDS011;7116;52.152;5.392;2023-01-16T06:17:17;7.57;;;2.93;;
14080;SDS011;7116;52.152;5.392;2023-01-16T06:19:43;6.32;;;3.25;;
14080;SDS011;7116;52.152;5.392;2023-01-16T06:22:10;7.45;;;3.70;;
14080;SDS011;7116;52.152;5.392;2023-01-16T06:24:35;6.63;;;3.20;;
14080;SDS011;7116;52.152;5.392;2023-01-16T06:27:00;8.23;;;3.70;;
14080;SDS011;7116;52.152;5.392;2023-01-16T06:29:26;6.03;;;3.20;;
14080;SDS011;7116;52.152;5.392;2023-01-16T06:31:51;8.97;;;4.73;;
14080;SDS011;7116;52.152;5.392;2023-01-16T06:34:16;9.50;;;3.60;;
14080;SDS011;7116;52.152;5.392;2023-01-16T06:36:42;5.53;;;3.97;;
14080;SDS011;7116;52.152;5.392;2023-01-16T06:39:09;4.90;;;2.87;;
14080;SDS011;7116;52.152;5.392;2023-01-16T06:41:34;6.25;;;3.42;;
14080;SDS011;7116;52.152;5.392;2023-01-16T06:44:00;7.30;;;3.57;;
14080;SDS011;7116;52.152;5.392;2023-01-16T06:46:25;7.17;;;4.20;;
14080;SDS011;7116;52.152;5.392;2023-01-16T06:48:50;8.60;;;3.93;;
14080;SDS011;7116;52.152;5.392;2023-01-16T06:51:15;5.90;;;4.00;;
14080;SDS011;7116;52.152;5.392;2023-01-16T06:53:40;7.53;;;3.77;;
14080;SDS011;7116;52.152;5.392;2023-01-16T06:56:06;5.47;;;3.20;;
14080;SDS011;7116;52.152;5.392;2023-01-16T06:58:31;5.37;;;2.97;;
14080;SDS011;7116;52.152;5.392;2023-01-16T07:00:58;8.43;;;3.72;;
14080;SDS011;7116;52.152;5.392;2023-01-16T07:03:24;5.30;;;3.17;;
14080;SDS011;7116;52.152;5.392;2023-01-16T07:05:49;7.35;;;3.17;;
14080;SDS011;7116;52.152;5.392;2023-01-16T07:08:15;6.50;;;3.23;;
14080;SDS011;7116;52.152;5.392;2023-01-16T07:10:40;5.67;;;2.73;;
14080;SDS011;7116;52.152;5.392;2023-01-16T07:13:05;5.77;;;2.80;;
14080;SDS011;7116;52.152;5.392;2023-01-16T07:15:31;11.83;;;3.20;;
14080;SDS011;7116;52.152;5.392;2023-01-16T07:18:16;6.68;;;2.70;;
14080;SDS011;7116;52.152;5.392;2023-01-16T07:21:01;6.20;;;3.65;;
14080;SDS011;7116;52.152;5.392;2023-01-16T07:23:46;5.68;;;3.58;;
14080;SDS011;7116;52.152;5.392;2023-01-16T07:26:12;6.38;;;3.38;;
14080;SDS011;7116;52.152;5.392;2023-01-16T07:28:39;6.97;;;3.28;;
14080;SDS011;7116;52.152;5.392;2023-01-16T07:31:05;6.80;;;2.72;;
14080;SDS011;7116;52.152;5.392;2023-01-16T07:33:31;4.45;;;3.00;;
14080;SDS011;7116;52.152;5.392;2023-01-16T07:35:57;3.75;;;2.60;;
14080;SDS011;7116;52.152;5.392;2023-01-16T07:38:22;7.87;;;3.50;;
14080;SDS011;7116;52.152;5.392;2023-01-16T07:40:47;5.67;;;3.07;;
14080;SDS011;7116;52.152;5.392;2023-01-16T07:43:12;5.17;;;3.40;;
14080;SDS011;7116;52.152;5.392;2023-01-16T07:45:37;4.07;;;3.07;;
14080;SDS011;7116;52.152;5.392;2023-01-16T07:48:03;4.37;;;2.70;;
14080;SDS011;7116;52.152;5.392;2023-01-16T07:50:28;4.63;;;3.03;;
14080;SDS011;7116;52.152;5.392;2023-01-16T07:52:53;7.93;;;3.30;;
14080;SDS011;7116;52.152;5.392;2023-01-16T07:55:19;5.77;;;2.43;;
14080;SDS011;7116;52.152;5.392;2023-01-16T07:57:44;6.77;;;3.00;;
14080;SDS011;7116;52.152;5.392;2023-01-16T08:00:10;8.00;;;3.73;;
14080;SDS011;7116;52.152;5.392;2023-01-16T08:02:36;3.05;;;2.55;;
14080;SDS011;7116;52.152;5.392;2023-01-16T08:05:02;7.63;;;3.65;;
14080;SDS011;7116;52.152;5.392;2023-01-16T08:07:27;4.50;;;2.77;;
14080;SDS011;7116;52.152;5.392;2023-01-16T08:09:52;5.63;;;3.17;;
14080;SDS011;7116;52.152;5.392;2023-01-16T08:12:17;8.40;;;4.80;;
14080;SDS011;7116;52.152;5.392;2023-01-16T08:14:43;7.13;;;3.83;;
14080;SDS011;7116;52.152;5.392;2023-01-16T08:17:08;4.90;;;3.57;;
14080;SDS011;7116;52.152;5.392;2023-01-16T08:19:33;7.87;;;4.20;;
14080;SDS011;7116;52.152;5.392;2023-01-16T08:21:58;7.43;;;3.40;;
14080;SDS011;7116;52.152;5.392;2023-01-16T08:24:24;5.33;;;3.40;;
14080;SDS011;7116;52.152;5.392;2023-01-16T08:26:50;4.30;;;3.25;;
14080;SDS011;7116;52.152;5.392;2023-01-16T08:29:16;5.27;;;3.30;;
14080;SDS011;7116;52.152;5.392;2023-01-16T08:31:41;4.05;;;3.58;;
14080;SDS011;7116;52.152;5.392;2023-01-16T08:34:06;7.83;;;3.00;;
14080;SDS011;7116;52.152;5.392;2023-01-16T08:36:31;7.37;;;4.50;;
14080;SDS011;7116;52.152;5.392;2023-01-16T08:38:56;7.03;;;3.30;;
14080;SDS011;7116;52.152;5.392;2023-01-16T08:41:22;6.50;;;4.53;;
14080;SDS011;7116;52.152;5.392;2023-01-16T08:44:07;4.28;;;3.67;;
14080;SDS011;7116;52.152;5.392;2023-01-16T08:46:53;6.00;;;4.13;;
14080;SDS011;7116;52.152;5.392;2023-01-16T08:49:38;7.63;;;4.13;;
14080;SDS011;7116;52.152;5.392;2023-01-16T08:52:22;3.60;;;2.75;;
14080;SDS011;7116;52.152;5.392;2023-01-16T08:54:47;6.50;;;3.40;;
14080;SDS011;7116;52.152;5.392;2023-01-16T08:57:12;6.13;;;4.83;;
14080;SDS011;7116;52.152;5.392;2023-01-16T08:59:38;5.17;;;4.13;;
14080;SDS011;7116;52.152;5.392;2023-01-16T09:02:03;6.77;;;3.80;;
14080;SDS011;7116;52.152;5.392;2023-01-16T09:04:29;8.10;;;3.90;;
14080;SDS011;7116;52.152;5.392;2023-01-16T09:06:54;7.80;;;4.03;;
14080;SDS011;7116;52.152;5.392;2023-01-16T09:09:20;4.00;;;2.70;;
14080;SDS011;7116;52.152;5.392;2023-01-16T09:11:45;5.67;;;3.30;;
14080;SDS011;7116;52.152;5.392;2023-01-16T09:14:29;4.00;;;2.97;;
14080;SDS011;7116;52.152;5.392;2023-01-16T09:16:54;5.80;;;3.27;;
14080;SDS011;7116;52.152;5.392;2023-01-16T09:19:19;5.53;;;4.33;;
14080;SDS011;7116;52.152;5.392;2023-01-16T09:21:44;4.50;;;2.83;;
14080;SDS011;7116;52.152;5.392;2023-01-16T09:24:12;6.73;;;4.13;;
14080;SDS011;7116;52.152;5.392;2023-01-16T09:26:37;5.47;;;4.82;;
14080;SDS011;7116;52.152;5.392;2023-01-16T09:29:02;5.33;;;3.70;;
14080;SDS011;7116;52.152;5.392;2023-01-16T09:31:28;6.03;;;4.00;;
14080;SDS011;7116;52.152;5.392;2023-01-16T09:33:53;6.13;;;3.60;;
14080;SDS011;7116;52.152;5.392;2023-01-16T09:36:19;6.97;;;3.97;;
14080;SDS011;7116;52.152;5.392;2023-01-16T09:38:44;6.93;;;3.47;;
14080;SDS011;7116;52.152;5.392;2023-01-16T09:41:13;5.73;;;4.17;;
14080;SDS011;7116;52.152;5.392;2023-01-16T09:43:58;5.50;;;4.13;;
14080;SDS011;7116;52.152;5.392;2023-01-16T09:46:25;9.90;;;4.15;;
14080;SDS011;7116;52.152;5.392;2023-01-16T09:49:07;6.88;;;3.80;;
14080;SDS011;7116;52.152;5.392;2023-01-16T09:51:41;6.60;;;3.37;;
14080;SDS011;7116;52.152;5.392;2023-01-16T09:54:11;4.30;;;2.92;;
14080;SDS011;7116;52.152;5.392;2023-01-16T09:56:56;6.40;;;3.67;;
14080;SDS011;7116;52.152;5.392;2023-01-16T09:59:43;5.80;;;3.17;;
14080;SDS011;7116;52.152;5.392;2023-01-16T10:02:13;6.40;;;3.53;;
14080;SDS011;7116;52.152;5.392;2023-01-16T10:04:41;6.77;;;3.37;;
14080;SDS011;7116;52.152;5.392;2023-01-16T10:12:36;4.65;;;3.05;;
14080;SDS011;7116;52.152;5.392;2023-01-16T10:15:35;7.43;;;4.35;;
14080;SDS011;7116;52.152;5.392;2023-01-16T10:17:59;3.90;;;2.90;;
14080;SDS011;7116;52.152;5.392;2023-01-16T10:20:35;3.70;;;2.90;;
14080;SDS011;7116;52.152;5.392;2023-01-16T10:31:00;6.53;;;3.30;;
14080;SDS011;7116;52.152;5.392;2023-01-16T10:33:29;5.40;;;3.75;;
14080;SDS011;7116;52.152;5.392;2023-01-16T10:35:55;3.92;;;3.28;;
14080;SDS011;7116;52.152;5.392;2023-01-16T10:38:25;4.20;;;3.40;;
14080;SDS011;7116;52.152;5.392;2023-01-16T10:41:08;5.20;;;3.25;;
14080;SDS011;7116;52.152;5.392;2023-01-16T10:43:57;4.40;;;3.63;;
14080;SDS011;7116;52.152;5.392;2023-01-16T10:46:41;4.50;;;3.67;;
14080;SDS011;7116;52.152;5.392;2023-01-16T10:49:24;3.85;;;3.10;;
14080;SDS011;7116;52.152;5.392;2023-01-16T10:52:00;4.53;;;3.20;;
14080;SDS011;7116;52.152;5.392;2023-01-16T10:54:26;3.72;;;3.08;;
14080;SDS011;7116;52.152;5.392;2023-01-16T10:56:51;4.13;;;2.63;;
14080;SDS011;7116;52.152;5.392;2023-01-16T10:59:17;4.67;;;2.60;;
14080;SDS011;7116;52.152;5.392;2023-01-16T11:01:42;4.43;;;3.37;;
14080;SDS011;7116;52.152;5.392;2023-01-16T11:04:12;13.32;;;7.57;;
14080;SDS011;7116;52.152;5.392;2023-01-16T11:06:37;8.98;;;5.63;;
14080;SDS011;7116;52.152;5.392;2023-01-16T11:11:33;5.93;;;3.87;;
14080;SDS011;7116;52.152;5.392;2023-01-16T11:17:15;3.70;;;3.35;;
14080;SDS011;7116;52.152;5.392;2023-01-16T11:20:04;2.90;;;2.60;;
14080;SDS011;7116;52.152;5.392;2023-01-16T11:22:30;3.58;;;2.78;;
14080;SDS011;7116;52.152;5.392;2023-01-16T11:24:58;4.80;;;3.43;;
14080;SDS011;7116;52.152;5.392;2023-01-16T11:27:26;3.38;;;2.97;;
14080;SDS011;7116;52.152;5.392;2023-01-16T11:29:53;2.47;;;2.28;;
14080;SDS011;7116;52.152;5.392;2023-01-16T11:32:19;3.85;;;2.90;;
14080;SDS011;7116;52.152;5.392;2023-01-16T11:34:49;3.55;;;3.22;;
14080;SDS011;7116;52.152;5.392;2023-01-16T11:37:15;2.65;;;2.45;;
14080;SDS011;7116;52.152;5.392;2023-01-16T11:39:41;3.07;;;2.50;;
14080;SDS011;7116;52.152;5.392;2023-01-16T11:42:11;3.55;;;2.45;;
14080;SDS011;7116;52.152;5.392;2023-01-16T11:44:57;3.88;;;3.53;;
14080;SDS011;7116;52.152;5.392;2023-01-16T11:47:42;3.70;;;2.97;;
14080;SDS011;7116;52.152;5.392;2023-01-16T11:52:52;5.05;;;3.75;;
14080;SDS011;7116;52.152;5.392;2023-01-16T11:55:18;6.23;;;3.57;;
14080;SDS011;7116;52.152;5.392;2023-01-16T12:13:14;3.85;;;3.15;;
14080;SDS011;7116;52.152;5.392;2023-01-16T12:18:47;3.13;;;2.50;;
14080;SDS011;7116;52.152;5.392;2023-01-16T12:21:33;7.47;;;3.17;;
14080;SDS011;7116;52.152;5.392;2023-01-16T12:24:13;2.92;;;2.28;;
14080;SDS011;7116;52.152;5.392;2023-01-16T12:26:57;4.07;;;3.10;;
14080;SDS011;7116;52.152;5.392;2023-01-16T12:32:14;3.70;;;3.00;;
14080;SDS011;7116;52.152;5.392;2023-01-16T12:37:31;4.07;;;3.30;;
14080;SDS011;7116;52.152;5.392;2023-01-16T12:50:43;5.53;;;4.07;;
14080;SDS011;7116;52.152;5.392;2023-01-16T12:58:37;5.00;;;2.83;;
14080;SDS011;7116;52.152;5.392;2023-01-16T13:01:12;4.53;;;3.20;;
14080;SDS011;7116;52.152;5.392;2023-01-16T13:06:13;6.75;;;3.58;;
14080;SDS011;7116;52.152;5.392;2023-01-16T13:08:44;4.82;;;3.38;;
14080;SDS011;7116;52.152;5.392;2023-01-16T13:11:12;6.97;;;3.60;;
14080;SDS011;7116;52.152;5.392;2023-01-16T13:13:59;6.35;;;4.57;;
14080;SDS011;7116;52.152;5.392;2023-01-16T13:16:27;4.82;;;4.32;;
14080;SDS011;7116;52.152;5.392;2023-01-16T13:18:56;5.22;;;3.03;;
14080;SDS011;7116;52.152;5.392;2023-01-16T13:21:25;6.47;;;4.25;;
14080;SDS011;7116;52.152;5.392;2023-01-16T13:23:54;3.72;;;3.15;;
14080;SDS011;7116;52.152;5.392;2023-01-16T13:26:21;6.03;;;3.70;;
14080;SDS011;7116;52.152;5.392;2023-01-16T13:28:55;2.80;;;2.33;;
14080;SDS011;7116;52.152;5.392;2023-01-16T13:31:27;3.17;;;2.72;;
14080;SDS011;7116;52.152;5.392;2023-01-16T13:33:56;3.70;;;3.03;;
14080;SDS011;7116;52.152;5.392;2023-01-16T13:36:35;3.33;;;2.80;;
14080;SDS011;7116;52.152;5.392;2023-01-16T13:41:43;2.87;;;2.40;;
14080;SDS011;7116;52.152;5.392;2023-01-16T13:47:27;4.30;;;2.92;;
14080;SDS011;7116;52.152;5.392;2023-01-16T13:49:54;3.67;;;2.50;;
14080;SDS011;7116;52.152;5.392;2023-01-16T13:52:21;3.58;;;3.22;;
14080;SDS011;7116;52.152;5.392;2023-01-16T13:54:47;3.03;;;2.73;;
14080;SDS011;7116;52.152;5.392;2023-01-16T13:57:22;4.70;;;2.88;;
14080;SDS011;7116;52.152;5.392;2023-01-16T13:59:49;4.00;;;3.20;;
14080;SDS011;7116;52.152;5.392;2023-01-16T14:21:02;3.97;;;2.73;;
14080;SDS011;7116;52.152;5.392;2023-01-16T14:23:29;2.78;;;2.40;;
14080;SDS011;7116;52.152;5.392;2023-01-16T14:26:17;3.83;;;3.50;;
14080;SDS011;7116;52.152;5.392;2023-01-16T14:28:46;3.80;;;3.00;;
14080;SDS011;7116;52.152;5.392;2023-01-16T14:31:18;4.30;;;3.75;;
14080;SDS011;7116;52.152;5.392;2023-01-16T14:33:46;4.50;;;2.90;;
14080;SDS011;7116;52.152;5.392;2023-01-16T14:36:11;3.75;;;3.05;;
14080;SDS011;7116;52.152;5.392;2023-01-16T14:38:38;3.22;;;2.90;;
14080;SDS011;7116;52.152;5.392;2023-01-16T14:41:11;3.67;;;3.38;;
14080;SDS011;7116;52.152;5.392;2023-01-16T14:44:17;3.58;;;2.60;;
14080;SDS011;7116;52.152;5.392;2023-01-16T14:50:16;3.10;;;2.63;;
14080;SDS011;7116;52.152;5.392;2023-01-16T14:53:19;3.13;;;2.65;;
14080;SDS011;7116;52.152;5.392;2023-01-16T14:58:38;3.60;;;3.03;;
14080;SDS011;7116;52.152;5.392;2023-01-16T15:01:03;4.20;;;3.80;;
14080;SDS011;7116;52.152;5.392;2023-01-16T15:03:49;4.50;;;3.00;;
14080;SDS011;7116;52.152;5.392;2023-01-16T15:06:14;3.53;;;3.23;;
14080;SDS011;7116;52.152;5.392;2023-01-16T15:08:40;4.10;;;3.70;;
14080;SDS011;7116;52.152;5.392;2023-01-16T15:11:08;3.88;;;3.28;;
14080;SDS011;7116;52.152;5.392;2023-01-16T15:14:12;7.32;;;3.78;;
14080;SDS011;7116;52.152;5.392;2023-01-16T15:16:58;13.95;;;3.78;;
14080;SDS011;7116;52.152;5.392;2023-01-16T15:22:41;4.63;;;3.75;;
14080;SDS011;7116;52.152;5.392;2023-01-16T15:27:51;4.05;;;3.05;;
14080;SDS011;7116;52.152;5.392;2023-01-16T15:30:20;4.15;;;3.58;;
14080;SDS011;7116;52.152;5.392;2023-01-16T15:32:55;5.50;;;3.80;;
14080;SDS011;7116;52.152;5.392;2023-01-16T15:35:41;4.60;;;3.50;;
14080;SDS011;7116;52.152;5.392;2023-01-16T15:38:08;3.92;;;3.15;;
14080;SDS011;7116;52.152;5.392;2023-01-16T15:40:33;4.43;;;3.63;;
14080;SDS011;7116;52.152;5.392;2023-01-16T15:42:59;4.47;;;3.50;;
14080;SDS011;7116;52.152;5.392;2023-01-16T15:46:02;5.68;;;4.65;;
14080;SDS011;7116;52.152;5.392;2023-01-16T15:51:38;4.90;;;4.40;;
14080;SDS011;7116;52.152;5.392;2023-01-16T15:54:04;4.03;;;3.47;;
14080;SDS011;7116;52.152;5.392;2023-01-16T15:58:54;3.93;;;3.53;;
14080;SDS011;7116;52.152;5.392;2023-01-16T16:01:24;4.93;;;4.13;;
14080;SDS011;7116;52.152;5.392;2023-01-16T16:03:49;4.55;;;4.15;;
14080;SDS011;7116;52.152;5.392;2023-01-16T16:06:15;7.82;;;6.53;;
14080;SDS011;7116;52.152;5.392;2023-01-16T16:08:43;5.47;;;4.10;;
14080;SDS011;7116;52.152;5.392;2023-01-16T16:11:12;5.22;;;4.20;;
14080;SDS011;7116;52.152;5.392;2023-01-16T16:13:58;5.40;;;4.13;;
14080;SDS011;7116;52.152;5.392;2023-01-16T16:16:25;4.97;;;4.10;;
14080;SDS011;7116;52.152;5.392;2023-01-16T16:19:09;5.20;;;4.28;;
14080;SDS011;7116;52.152;5.392;2023-01-16T16:21:53;7.38;;;6.32;;
14080;SDS011;7116;52.152;5.392;2023-01-16T16:24:38;16.70;;;11.32;;
14080;SDS011;7116;52.152;5.392;2023-01-16T16:27:05;15.25;;;9.88;;
14080;SDS011;7116;52.152;5.392;2023-01-16T16:29:31;17.47;;;12.17;;
14080;SDS011;7116;52.152;5.392;2023-01-16T16:31:59;20.00;;;14.23;;
14080;SDS011;7116;52.152;5.392;2023-01-16T16:34:25;14.27;;;10.32;;
14080;SDS011;7116;52.152;5.392;2023-01-16T16:36:56;15.13;;;9.75;;
14080;SDS011;7116;52.152;5.392;2023-01-16T16:41:58;11.15;;;8.38;;
14080;SDS011;7116;52.152;5.392;2023-01-16T16:44:46;8.05;;;6.65;;
14080;SDS011;7116;52.152;5.392;2023-01-16T16:47:28;8.43;;;5.70;;
14080;SDS011;7116;52.152;5.392;2023-01-16T16:49:53;15.50;;;13.75;;
14080;SDS011;7116;52.152;5.392;2023-01-16T16:52:25;18.33;;;15.03;;
14080;SDS011;7116;52.152;5.392;2023-01-16T16:54:56;12.43;;;10.93;;
14080;SDS011;7116;52.152;5.392;2023-01-16T16:57:21;11.15;;;9.23;;
14080;SDS011;7116;52.152;5.392;2023-01-16T16:59:47;16.52;;;14.25;;
14080;SDS011;7116;52.152;5.392;2023-01-16T17:02:13;12.00;;;7.47;;
14080;SDS011;7116;52.152;5.392;2023-01-16T17:04:38;16.97;;;10.13;;
14080;SDS011;7116;52.152;5.392;2023-01-16T17:07:03;11.20;;;8.40;;
14080;SDS011;7116;52.152;5.392;2023-01-16T17:09:30;10.30;;;7.68;;
14080;SDS011;7116;52.152;5.392;2023-01-16T17:11:57;12.52;;;8.43;;
14080;SDS011;7116;52.152;5.392;2023-01-16T17:14:24;10.18;;;7.18;;
14080;SDS011;7116;52.152;5.392;2023-01-16T17:16:49;9.43;;;7.20;;
14080;SDS011;7116;52.152;5.392;2023-01-16T17:19:19;7.93;;;6.27;;
14080;SDS011;7116;52.152;5.392;2023-01-16T17:21:45;9.23;;;6.30;;
14080;SDS011;7116;52.152;5.392;2023-01-16T17:24:13;6.50;;;4.95;;
14080;SDS011;7116;52.152;5.392;2023-01-16T17:26:39;5.82;;;5.22;;
14080;SDS011;7116;52.152;5.392;2023-01-16T17:29:05;3.88;;;3.40;;
14080;SDS011;7116;52.152;5.392;2023-01-16T17:31:31;8.13;;;4.37;;
14080;SDS011;7116;52.152;5.392;2023-01-16T17:33:56;5.70;;;4.70;;
14080;SDS011;7116;52.152;5.392;2023-01-16T17:36:22;5.30;;;4.80;;
14080;SDS011;7116;52.152;5.392;2023-01-16T17:38:48;5.32;;;3.97;;